Time;durP1;ratioP1;P1;durP2;ratioP2;P2;SDS_P1;SDS_P2;PMS_P1;PMS_P2;Temp;Humidity;BMP_temperature;BMP_pressure;BME280_temperature;BME280_humidity;BME280_pressure;Samples;Min_cycle;Max_cycle;Signal;HPM_P1;HPM_P2
2021/12/27 00:00:36;;;;;;;16.30;5.30;;;;;;;;;;5013886;28;20097;-82
2021/12/27 00:03:04;;;;;;;9.68;3.28;;;;;;;;;;4994078;28;20049;-82
2021/12/27 00:05:32;;;;;;;11.15;3.53;;;;;;;;;;4992386;28;20068;-80
2021/12/27 00:07:59;;;;;;;14.32;4.03;;;;;;;;;;4992347;28;20128;-79
2021/12/27 00:10:28;;;;;;;11.15;3.70;;;;;;;;;;5012790;28;20128;-80
2021/12/27 00:12:56;;;;;;;12.57;3.75;;;;;;;;;;5020540;28;20053;-81
2021/12/27 00:15:24;;;;;;;6.90;3.85;;;;;;;;;;4996235;28;20207;-82
2021/12/27 00:17:51;;;;;;;19.48;4.45;;;;;;;;;;4991368;28;20140;-79
2021/12/27 00:20:19;;;;;;;10.45;3.80;;;;;;;;;;4994036;28;20132;-79
2021/12/27 00:22:46;;;;;;;17.75;3.85;;;;;;;;;;4996858;28;20123;-79
2021/12/27 00:25:14;;;;;;;15.07;4.20;;;;;;;;;;5012443;28;20244;-80
2021/12/27 00:27:42;;;;;;;10.10;3.20;;;;;;;;;;5000794;28;20129;-79
2021/12/27 00:30:09;;;;;;;7.75;2.90;;;;;;;;;;4991302;28;20141;-80
2021/12/27 00:32:37;;;;;;;9.65;3.53;;;;;;;;;;5005709;28;20148;-80
2021/12/27 00:35:05;;;;;;;14.60;5.13;;;;;;;;;;4990331;28;20726;-80
2021/12/27 00:37:32;;;;;;;14.13;4.55;;;;;;;;;;5007381;28;20428;-80
2021/12/27 00:40:04;;;;;;;10.02;4.35;;;;;;;;;;5011471;28;20050;-80
2021/12/27 00:42:45;;;;;;;14.00;3.30;;;;;;;;;;5010726;28;20092;-82
2021/12/27 00:45:12;;;;;;;11.98;3.72;;;;;;;;;;5032415;28;20079;-82
2021/12/27 00:47:39;;;;;;;13.93;3.55;;;;;;;;;;5010395;28;20410;-82
2021/12/27 00:50:07;;;;;;;14.07;5.68;;;;;;;;;;5012627;28;20141;-82
2021/12/27 00:52:35;;;;;;;18.95;4.70;;;;;;;;;;5012353;28;20081;-82
2021/12/27 00:55:10;;;;;;;16.48;4.97;;;;;;;;;;4994943;28;20099;-82
2021/12/27 00:57:39;;;;;;;12.13;3.67;;;;;;;;;;5020488;28;20132;-82
2021/12/27 01:00:09;;;;;;;18.30;4.82;;;;;;;;;;4994802;28;20145;-82
2021/12/27 01:02:36;;;;;;;13.45;4.97;;;;;;;;;;4994617;28;20073;-82
2021/12/27 01:05:04;;;;;;;13.60;5.50;;;;;;;;;;4994622;28;20069;-82
2021/12/27 01:07:31;;;;;;;11.68;4.88;;;;;;;;;;4994481;28;20133;-79
2021/12/27 01:13:03;;;;;;;15.43;4.80;;;;;;;;;;5007066;28;20073;-79
2021/12/27 01:18:08;;;;;;;11.40;3.95;;;;;;;;;;5012970;28;20470;-80
2021/12/27 01:20:36;;;;;;;11.55;4.38;;;;;;;;;;4989806;28;20052;-80
2021/12/27 01:23:03;;;;;;;19.42;5.43;;;;;;;;;;5012042;28;20087;-81
2021/12/27 01:25:31;;;;;;;19.02;4.72;;;;;;;;;;5029215;28;20050;-81
2021/12/27 01:27:58;;;;;;;20.00;5.13;;;;;;;;;;5018827;28;20116;-82
2021/12/27 01:30:25;;;;;;;16.90;5.45;;;;;;;;;;5030932;28;20085;-81
2021/12/27 01:32:57;;;;;;;24.15;6.63;;;;;;;;;;5003975;28;20091;-81
2021/12/27 01:35:25;;;;;;;14.85;5.75;;;;;;;;;;4994634;28;20084;-82
2021/12/27 01:37:53;;;;;;;15.48;5.38;;;;;;;;;;5010736;28;20128;-82
2021/12/27 01:40:23;;;;;;;15.60;5.30;;;;;;;;;;5010881;28;20092;-82
2021/12/27 01:43:05;;;;;;;10.85;4.75;;;;;;;;;;5012728;28;20133;-81
2021/12/27 01:45:33;;;;;;;16.10;5.00;;;;;;;;;;5004216;28;20464;-82
2021/12/27 01:48:00;;;;;;;14.02;5.13;;;;;;;;;;4999500;28;20042;-80
2021/12/27 01:50:28;;;;;;;13.90;5.30;;;;;;;;;;5010186;28;20149;-80
2021/12/27 01:52:55;;;;;;;18.48;5.55;;;;;;;;;;4991791;28;20525;-80
2021/12/27 01:55:22;;;;;;;11.60;4.60;;;;;;;;;;5010309;28;20124;-80
2021/12/27 02:00:40;;;;;;;19.23;5.88;;;;;;;;;;5013642;28;20104;-82
2021/12/27 02:03:07;;;;;;;17.90;5.65;;;;;;;;;;5010195;28;20570;-81
2021/12/27 02:05:36;;;;;;;22.85;6.07;;;;;;;;;;4971174;28;1026779;-80
2021/12/27 02:08:04;;;;;;;23.55;6.72;;;;;;;;;;5010455;28;20050;-81
2021/12/27 02:10:32;;;;;;;16.27;5.82;;;;;;;;;;5009920;28;20499;-82
2021/12/27 02:13:00;;;;;;;15.45;5.10;;;;;;;;;;4997173;28;20128;-82
2021/12/27 02:15:27;;;;;;;27.27;6.00;;;;;;;;;;5022163;28;20460;-81
2021/12/27 02:17:54;;;;;;;16.10;5.60;;;;;;;;;;5015373;28;20054;-81
2021/12/27 02:20:25;;;;;;;20.75;6.15;;;;;;;;;;4993968;28;20547;-81
2021/12/27 02:26:17;;;;;;;22.52;5.55;;;;;;;;;;5011882;28;20045;-81
2021/12/27 02:28:44;;;;;;;26.25;6.43;;;;;;;;;;5002325;28;20132;-82
2021/12/27 02:31:11;;;;;;;24.23;6.22;;;;;;;;;;4993705;28;20125;-81
2021/12/27 02:33:40;;;;;;;19.10;6.95;;;;;;;;;;4993774;28;20049;-82
2021/12/27 02:36:08;;;;;;;28.58;6.60;;;;;;;;;;5011055;28;20050;-82
2021/12/27 02:38:39;;;;;;;21.40;5.85;;;;;;;;;;4993637;28;20088;-82
2021/12/27 02:41:09;;;;;;;20.17;6.80;;;;;;;;;;5011441;28;20119;-81
2021/12/27 02:43:39;;;;;;;20.08;5.47;;;;;;;;;;5001521;28;20130;-81
2021/12/27 02:46:08;;;;;;;20.10;5.68;;;;;;;;;;5005732;28;20041;-81
2021/12/27 02:48:38;;;;;;;16.15;5.68;;;;;;;;;;5013524;28;20128;-81
2021/12/27 02:51:07;;;;;;;21.73;6.30;;;;;;;;;;5031024;28;20041;-80
2021/12/27 02:53:34;;;;;;;19.35;6.38;;;;;;;;;;5015489;28;20137;-81
2021/12/27 02:56:04;;;;;;;17.98;6.20;;;;;;;;;;4993657;28;20077;-81
2021/12/27 02:58:31;;;;;;;21.40;7.82;;;;;;;;;;5019429;28;20077;-81
2021/12/27 03:01:05;;;;;;;18.23;6.35;;;;;;;;;;5012273;28;20085;-80
2021/12/27 03:03:42;;;;;;;22.55;7.57;;;;;;;;;;4998335;28;20088;-81
2021/12/27 03:06:10;;;;;;;35.05;8.10;;;;;;;;;;5010904;28;20085;-81
2021/12/27 03:08:37;;;;;;;13.40;6.13;;;;;;;;;;5009663;28;20085;-81
2021/12/27 03:11:05;;;;;;;31.05;8.13;;;;;;;;;;5009789;28;20136;-81
2021/12/27 03:13:34;;;;;;;19.73;7.10;;;;;;;;;;5015023;28;20124;-82
2021/12/27 03:16:12;;;;;;;18.45;4.97;;;;;;;;;;5007146;28;20076;-82
2021/12/27 03:18:45;;;;;;;21.10;7.95;;;;;;;;;;5025014;28;20124;-81
2021/12/27 03:21:13;;;;;;;25.60;7.25;;;;;;;;;;5009389;28;20046;-81
2021/12/27 03:23:41;;;;;;;22.60;6.88;;;;;;;;;;4994554;28;20132;-81
2021/12/27 03:26:09;;;;;;;28.75;8.63;;;;;;;;;;4993452;28;20077;-82
2021/12/27 03:28:36;;;;;;;51.65;16.75;;;;;;;;;;4996706;28;20081;-83
2021/12/27 03:31:04;;;;;;;31.70;10.57;;;;;;;;;;4996692;28;20069;-83
2021/12/27 03:33:35;;;;;;;44.38;9.75;;;;;;;;;;5008771;28;20823;-82
2021/12/27 03:36:05;;;;;;;24.10;8.23;;;;;;;;;;5013003;28;20413;-82
2021/12/27 03:38:33;;;;;;;20.88;7.65;;;;;;;;;;5009983;28;20475;-83
2021/12/27 03:41:02;;;;;;;30.15;8.88;;;;;;;;;;5013101;28;20044;-82
2021/12/27 03:43:29;;;;;;;33.42;8.55;;;;;;;;;;5003027;28;20136;-82
2021/12/27 03:45:56;;;;;;;31.80;10.02;;;;;;;;;;5016138;28;20721;-82
2021/12/27 03:48:28;;;;;;;28.30;7.88;;;;;;;;;;5015931;28;20561;-82
2021/12/27 03:50:55;;;;;;;28.13;9.52;;;;;;;;;;5015543;28;20134;-82
2021/12/27 03:53:22;;;;;;;36.38;10.30;;;;;;;;;;5000668;28;20049;-82
2021/12/27 03:55:49;;;;;;;28.60;10.77;;;;;;;;;;5013964;28;20140;-82
2021/12/27 03:58:28;;;;;;;32.13;10.73;;;;;;;;;;5012651;28;20136;-82
2021/12/27 04:03:28;;;;;;;34.30;9.45;;;;;;;;;;5000794;28;20058;-82
2021/12/27 04:05:55;;;;;;;26.80;9.73;;;;;;;;;;4992799;28;20140;-81
2021/12/27 04:08:22;;;;;;;32.92;10.38;;;;;;;;;;5013914;28;20549;-82
2021/12/27 04:10:50;;;;;;;35.97;10.00;;;;;;;;;;5032416;28;20049;-82
2021/12/27 04:13:21;;;;;;;27.50;9.35;;;;;;;;;;4995725;28;20125;-82
2021/12/27 04:15:48;;;;;;;38.42;11.10;;;;;;;;;;5012114;28;20142;-81
2021/12/27 04:18:16;;;;;;;40.03;10.63;;;;;;;;;;5011998;28;20165;-82
2021/12/27 04:20:44;;;;;;;45.67;12.75;;;;;;;;;;5012938;28;20077;-81
2021/12/27 04:23:11;;;;;;;24.70;9.65;;;;;;;;;;5013010;28;20046;-81
2021/12/27 04:25:38;;;;;;;34.95;10.63;;;;;;;;;;4995829;28;20093;-81
2021/12/27 04:28:06;;;;;;;34.60;10.27;;;;;;;;;;4995653;28;20172;-81
2021/12/27 04:30:33;;;;;;;43.15;12.90;;;;;;;;;;5013388;28;20415;-81
2021/12/27 04:33:00;;;;;;;41.92;11.88;;;;;;;;;;5002159;28;20077;-81
2021/12/27 04:35:31;;;;;;;44.83;11.65;;;;;;;;;;4976432;28;20707;-82
2021/12/27 04:37:58;;;;;;;35.72;12.00;;;;;;;;;;5004910;28;20097;-82
2021/12/27 04:40:28;;;;;;;30.02;11.38;;;;;;;;;;4996666;28;20089;-81
2021/12/27 04:42:58;;;;;;;62.40;18.77;;;;;;;;;;5002524;28;20145;-81
2021/12/27 04:45:27;;;;;;;44.08;12.07;;;;;;;;;;5022158;28;20077;-81
2021/12/27 04:47:55;;;;;;;32.72;12.20;;;;;;;;;;5001040;28;20473;-81
2021/12/27 04:50:23;;;;;;;34.55;11.88;;;;;;;;;;4993720;28;20137;-81
2021/12/27 04:52:53;;;;;;;40.80;12.02;;;;;;;;;;4992020;28;20124;-80
2021/12/27 04:55:21;;;;;;;41.00;13.80;;;;;;;;;;4991486;28;20092;-80
2021/12/27 04:57:49;;;;;;;40.92;12.80;;;;;;;;;;5008280;28;20505;-80
2021/12/27 05:00:16;;;;;;;49.95;13.80;;;;;;;;;;5003052;28;20615;-81
2021/12/27 05:02:43;;;;;;;48.72;14.10;;;;;;;;;;4999806;28;20081;-82
2021/12/27 05:05:10;;;;;;;54.97;14.40;;;;;;;;;;4990604;28;20073;-82
2021/12/27 05:07:38;;;;;;;51.30;14.63;;;;;;;;;;4992003;28;20125;-80
2021/12/27 05:10:06;;;;;;;42.58;12.07;;;;;;;;;;4990323;28;20133;-80
2021/12/27 05:12:33;;;;;;;37.85;13.05;;;;;;;;;;4989989;28;20150;-83
2021/12/27 05:15:00;;;;;;;45.97;12.88;;;;;;;;;;5000725;28;20109;-79
2021/12/27 05:17:28;;;;;;;53.78;14.77;;;;;;;;;;5000685;28;20112;-79
2021/12/27 05:19:55;;;;;;;57.05;15.65;;;;;;;;;;5006565;28;20160;-79
2021/12/27 05:22:22;;;;;;;57.65;15.85;;;;;;;;;;5011190;28;20081;-80
2021/12/27 05:24:49;;;;;;;44.03;16.13;;;;;;;;;;5011349;28;20472;-79
2021/12/27 05:27:16;;;;;;;51.83;14.07;;;;;;;;;;4994364;28;20125;-79
2021/12/27 05:29:43;;;;;;;54.55;14.60;;;;;;;;;;5002097;28;20080;-79
2021/12/27 05:32:11;;;;;;;42.63;13.27;;;;;;;;;;4994198;28;20113;-79
2021/12/27 05:34:38;;;;;;;54.42;14.70;;;;;;;;;;4994874;28;20058;-79
2021/12/27 05:37:09;;;;;;;55.45;14.07;;;;;;;;;;4994989;28;20057;-80
2021/12/27 05:39:36;;;;;;;43.00;13.32;;;;;;;;;;4994817;28;20089;-79
2021/12/27 05:42:04;;;;;;;53.55;15.13;;;;;;;;;;5006830;28;20137;-79
2021/12/27 05:44:31;;;;;;;51.00;15.10;;;;;;;;;;4995025;28;20138;-79
2021/12/27 05:46:58;;;;;;;46.30;13.57;;;;;;;;;;5008240;28;20081;-79
2021/12/27 05:49:26;;;;;;;50.95;14.73;;;;;;;;;;4988367;28;20088;-78
2021/12/27 05:51:53;;;;;;;44.65;14.65;;;;;;;;;;4996017;28;20436;-79
2021/12/27 05:54:21;;;;;;;50.28;13.43;;;;;;;;;;5011438;28;20089;-80
2021/12/27 05:56:49;;;;;;;35.33;13.20;;;;;;;;;;5009581;28;20187;-79
2021/12/27 05:59:16;;;;;;;42.03;13.68;;;;;;;;;;5005170;28;20081;-79
2021/12/27 06:01:44;;;;;;;41.92;14.10;;;;;;;;;;5010681;28;20089;-79
2021/12/27 06:04:12;;;;;;;44.38;12.55;;;;;;;;;;5010348;28;20058;-78
2021/12/27 06:06:39;;;;;;;45.92;14.45;;;;;;;;;;5012666;28;20045;-78
2021/12/27 06:09:07;;;;;;;60.30;16.38;;;;;;;;;;4989177;28;20051;-78
2021/12/27 06:11:34;;;;;;;36.55;13.98;;;;;;;;;;5012984;28;20108;-79
2021/12/27 06:14:01;;;;;;;45.30;14.60;;;;;;;;;;5018649;28;20128;-79
2021/12/27 06:16:29;;;;;;;49.50;14.75;;;;;;;;;;5021473;28;20058;-79
2021/12/27 06:18:56;;;;;;;43.45;13.27;;;;;;;;;;5010632;28;20132;-79
2021/12/27 06:21:23;;;;;;;37.08;13.23;;;;;;;;;;4992691;28;20089;-79
2021/12/27 06:23:51;;;;;;;50.67;15.40;;;;;;;;;;5010603;28;20145;-79
2021/12/27 06:26:20;;;;;;;53.85;15.75;;;;;;;;;;4992949;28;20085;-79
2021/12/27 06:28:47;;;;;;;44.72;13.13;;;;;;;;;;5020989;28;20400;-79
2021/12/27 06:31:15;;;;;;;45.88;14.18;;;;;;;;;;4992528;28;20138;-79
2021/12/27 06:33:42;;;;;;;55.10;15.63;;;;;;;;;;5010344;28;20809;-79
2021/12/27 06:36:12;;;;;;;50.00;13.95;;;;;;;;;;5009918;28;20097;-79
2021/12/27 06:38:39;;;;;;;48.47;14.68;;;;;;;;;;4994194;28;20086;-81
2021/12/27 06:41:07;;;;;;;59.08;16.10;;;;;;;;;;5011176;28;20133;-81
2021/12/27 06:43:35;;;;;;;55.50;15.45;;;;;;;;;;5018303;28;20081;-81
2021/12/27 06:46:04;;;;;;;52.25;16.23;;;;;;;;;;5022404;28;20124;-81
2021/12/27 06:48:31;;;;;;;61.10;16.80;;;;;;;;;;5019531;28;20057;-81
2021/12/27 06:50:58;;;;;;;57.47;17.55;;;;;;;;;;4993332;28;20404;-81
2021/12/27 06:53:28;;;;;;;49.45;15.40;;;;;;;;;;5011547;28;20452;-81
2021/12/27 06:55:56;;;;;;;51.67;14.32;;;;;;;;;;4993772;28;20089;-80
2021/12/27 06:58:23;;;;;;;55.72;15.90;;;;;;;;;;5018592;28;20037;-80
2021/12/27 07:00:50;;;;;;;57.15;14.48;;;;;;;;;;5009602;28;20093;-81
2021/12/27 07:03:18;;;;;;;58.90;15.50;;;;;;;;;;5013392;28;20619;-81
2021/12/27 07:05:45;;;;;;;49.67;17.02;;;;;;;;;;5013891;28;20056;-80
2021/12/27 07:08:13;;;;;;;66.38;20.33;;;;;;;;;;5009909;28;20068;-80
2021/12/27 07:10:40;;;;;;;56.50;16.30;;;;;;;;;;4996914;28;20447;-80
2021/12/27 07:13:09;;;;;;;57.17;15.68;;;;;;;;;;5010757;28;20092;-80
2021/12/27 07:15:44;;;;;;;58.88;16.98;;;;;;;;;;5014557;28;20092;-80
2021/12/27 07:18:12;;;;;;;66.78;16.77;;;;;;;;;;5013189;28;20505;-80
2021/12/27 07:20:40;;;;;;;51.00;16.00;;;;;;;;;;5006285;28;20463;-80
2021/12/27 07:23:08;;;;;;;62.83;15.93;;;;;;;;;;5013331;28;20128;-81
2021/12/27 07:25:35;;;;;;;66.97;18.33;;;;;;;;;;5003323;28;20093;-80
2021/12/27 07:28:02;;;;;;;69.75;19.45;;;;;;;;;;5009074;28;20136;-80
2021/12/27 07:30:30;;;;;;;59.88;16.40;;;;;;;;;;5004541;28;20049;-80
2021/12/27 07:32:57;;;;;;;48.70;15.27;;;;;;;;;;5001322;28;20140;-80
2021/12/27 07:35:25;;;;;;;52.55;16.67;;;;;;;;;;4996847;28;20077;-81
2021/12/27 07:37:52;;;;;;;60.53;17.00;;;;;;;;;;4996375;28;20054;-80
2021/12/27 07:40:25;;;;;;;52.40;16.80;;;;;;;;;;5013397;28;20053;-79
2021/12/27 07:42:52;;;;;;;62.65;17.02;;;;;;;;;;5014717;28;20100;-81
2021/12/27 07:45:20;;;;;;;48.47;15.80;;;;;;;;;;5004563;28;20065;-81
2021/12/27 07:47:48;;;;;;;61.42;16.55;;;;;;;;;;4996668;28;20092;-80
2021/12/27 07:50:15;;;;;;;61.75;17.98;;;;;;;;;;4996742;28;20085;-81
2021/12/27 07:52:46;;;;;;;63.67;17.40;;;;;;;;;;4996876;28;20057;-82
2021/12/27 07:55:13;;;;;;;60.75;17.20;;;;;;;;;;4996201;28;20050;-81
2021/12/27 07:57:40;;;;;;;58.33;17.33;;;;;;;;;;5012247;28;20477;-81
2021/12/27 08:00:08;;;;;;;71.38;18.15;;;;;;;;;;4996761;28;20145;-81
2021/12/27 08:02:36;;;;;;;52.17;15.50;;;;;;;;;;5013577;28;20119;-80
2021/12/27 08:05:05;;;;;;;54.92;18.08;;;;;;;;;;4995230;28;20056;-80
2021/12/27 08:07:32;;;;;;;62.40;18.77;;;;;;;;;;5009348;28;20128;-80
2021/12/27 08:09:59;;;;;;;59.10;17.63;;;;;;;;;;4995991;28;20049;-79
2021/12/27 08:12:27;;;;;;;60.58;18.42;;;;;;;;;;5013029;28;20133;-80
2021/12/27 08:14:54;;;;;;;50.95;17.13;;;;;;;;;;5024241;28;20076;-79
2021/12/27 08:17:21;;;;;;;70.20;18.70;;;;;;;;;;4996780;28;20128;-81
2021/12/27 08:19:49;;;;;;;58.10;18.95;;;;;;;;;;4992307;28;20058;-80
2021/12/27 08:22:16;;;;;;;54.28;16.80;;;;;;;;;;5005995;28;20070;-81
2021/12/27 08:24:48;;;;;;;65.93;17.42;;;;;;;;;;5011653;28;20174;-78
2021/12/27 08:27:15;;;;;;;64.40;19.20;;;;;;;;;;5009076;28;20750;-79
2021/12/27 08:29:44;;;;;;;72.22;21.27;;;;;;;;;;4992981;28;20073;-82
2021/12/27 08:32:12;;;;;;;69.50;21.02;;;;;;;;;;5014350;28;20148;-80
2021/12/27 08:34:39;;;;;;;78.85;22.55;;;;;;;;;;4996612;28;20085;-82
2021/12/27 08:37:10;;;;;;;60.30;18.23;;;;;;;;;;4995695;28;20050;-80
2021/12/27 08:39:38;;;;;;;60.47;17.00;;;;;;;;;;5011708;28;20100;-79
2021/12/27 08:42:10;;;;;;;71.68;20.15;;;;;;;;;;4990860;28;20471;-79
2021/12/27 08:44:38;;;;;;;64.38;19.42;;;;;;;;;;4991181;28;20197;-78
2021/12/27 08:47:06;;;;;;;60.47;19.65;;;;;;;;;;5007822;28;20123;-79
2021/12/27 08:49:33;;;;;;;71.60;21.90;;;;;;;;;;4999363;28;20125;-79
2021/12/27 08:52:21;;;;;;;85.30;22.25;;;;;;;;;;4998922;28;20049;-79
2021/12/27 08:54:48;;;;;;;73.20;19.55;;;;;;;;;;4992251;28;20683;-79
2021/12/27 08:57:15;;;;;;;65.18;21.65;;;;;;;;;;5009295;28;20657;-79
2021/12/27 08:59:43;;;;;;;81.55;23.45;;;;;;;;;;4994034;28;20128;-79
2021/12/27 09:02:12;;;;;;;60.33;19.50;;;;;;;;;;4990995;28;20042;-79
2021/12/27 09:04:39;;;;;;;65.68;22.10;;;;;;;;;;5008799;28;20076;-79
2021/12/27 09:07:08;;;;;;;62.65;20.13;;;;;;;;;;4990469;28;20125;-79
2021/12/27 09:09:35;;;;;;;60.38;19.73;;;;;;;;;;4990908;28;20080;-80
2021/12/27 09:12:02;;;;;;;80.88;21.55;;;;;;;;;;5008786;28;20045;-79
2021/12/27 09:14:29;;;;;;;75.97;22.45;;;;;;;;;;5007567;28;20120;-79
2021/12/27 09:16:57;;;;;;;70.15;20.90;;;;;;;;;;5006953;28;20446;-79
2021/12/27 09:19:25;;;;;;;72.30;20.88;;;;;;;;;;4990312;28;20093;-78
2021/12/27 09:21:52;;;;;;;78.93;24.65;;;;;;;;;;4990729;28;20490;-82
2021/12/27 09:24:20;;;;;;;63.33;21.33;;;;;;;;;;4991205;28;20093;-79
2021/12/27 09:26:47;;;;;;;68.22;22.00;;;;;;;;;;5008852;28;20137;-81
2021/12/27 09:29:14;;;;;;;69.13;23.25;;;;;;;;;;4993462;28;20079;-77
2021/12/27 09:31:41;;;;;;;60.13;21.20;;;;;;;;;;5006896;28;20140;-77
2021/12/27 09:34:09;;;;;;;69.07;21.13;;;;;;;;;;4990125;28;20048;-79
2021/12/27 09:36:36;;;;;;;79.78;22.48;;;;;;;;;;5006772;28;20680;-79
2021/12/27 09:39:04;;;;;;;61.95;21.40;;;;;;;;;;5010330;28;20499;-88
2021/12/27 09:41:31;;;;;;;68.22;22.05;;;;;;;;;;5010484;28;20053;-84
2021/12/27 09:43:58;;;;;;;87.43;26.73;;;;;;;;;;5002189;28;20107;-83
2021/12/27 09:46:25;;;;;;;86.68;26.48;;;;;;;;;;4995692;28;20081;-84
2021/12/27 09:48:54;;;;;;;74.78;24.25;;;;;;;;;;4995187;28;20121;-82
2021/12/27 09:51:21;;;;;;;75.72;24.35;;;;;;;;;;5011436;28;20085;-84
2021/12/27 09:53:50;;;;;;;86.97;24.55;;;;;;;;;;4995143;28;20081;-85
2021/12/27 09:56:18;;;;;;;76.20;23.05;;;;;;;;;;5014063;28;20160;-86
2021/12/27 09:58:46;;;;;;;83.57;22.20;;;;;;;;;;5009447;28;20069;-84
2021/12/27 10:01:13;;;;;;;79.07;22.83;;;;;;;;;;4994537;28;20081;-84
2021/12/27 10:03:45;;;;;;;74.43;22.40;;;;;;;;;;4993960;28;20056;-87
2021/12/27 10:06:14;;;;;;;68.95;22.48;;;;;;;;;;4994149;28;20046;-85
2021/12/27 10:08:46;;;;;;;74.57;22.75;;;;;;;;;;4993857;28;20057;-86
2021/12/27 10:11:32;;;;;;;63.63;20.65;;;;;;;;;;4994429;28;20078;-89
2021/12/27 10:14:18;;;;;;;73.72;21.90;;;;;;;;;;5000459;28;20077;-90
2021/12/27 10:16:46;;;;;;;72.72;23.27;;;;;;;;;;5026207;28;20092;-88
2021/12/27 10:19:16;;;;;;;79.53;25.75;;;;;;;;;;4994149;28;20184;-88
2021/12/27 10:21:44;;;;;;;66.57;20.83;;;;;;;;;;5010833;28;20080;-89
2021/12/27 10:24:14;;;;;;;84.75;25.88;;;;;;;;;;5009285;28;20093;-83
2021/12/27 10:26:42;;;;;;;76.82;24.15;;;;;;;;;;5009423;28;20042;-83
2021/12/27 10:29:12;;;;;;;82.75;22.70;;;;;;;;;;5011317;28;20061;-87
2021/12/27 10:31:58;;;;;;;75.32;22.02;;;;;;;;;;5009588;28;20092;-86
2021/12/27 10:34:28;;;;;;;62.55;20.15;;;;;;;;;;5012879;28;20053;-87
2021/12/27 10:36:58;;;;;;;78.30;22.70;;;;;;;;;;5013100;28;20136;-88
2021/12/27 10:39:42;;;;;;;74.82;23.27;;;;;;;;;;5013718;28;20057;-89
2021/12/27 10:42:10;;;;;;;71.18;21.73;;;;;;;;;;5010101;28;20665;-85
2021/12/27 10:44:37;;;;;;;74.40;22.63;;;;;;;;;;5006993;28;20073;-86
2021/12/27 10:47:05;;;;;;;69.53;21.67;;;;;;;;;;5019652;28;20042;-85
2021/12/27 10:49:46;;;;;;;60.47;20.30;;;;;;;;;;5007601;28;20058;-84
2021/12/27 10:52:13;;;;;;;64.55;20.27;;;;;;;;;;5013903;28;20080;-83
2021/12/27 10:54:44;;;;;;;71.88;21.95;;;;;;;;;;5015534;28;20133;-86
2021/12/27 10:57:11;;;;;;;76.13;22.35;;;;;;;;;;4997444;28;20140;-86
2021/12/27 10:59:38;;;;;;;67.50;21.50;;;;;;;;;;5003837;28;20128;-85
2021/12/27 11:02:16;;;;;;;70.47;21.98;;;;;;;;;;5015144;28;20082;-81
2021/12/27 11:04:44;;;;;;;66.60;21.80;;;;;;;;;;4996956;28;20069;-81
2021/12/27 11:07:11;;;;;;;80.90;28.02;;;;;;;;;;4996628;28;20085;-82
2021/12/27 11:09:38;;;;;;;78.38;23.52;;;;;;;;;;5014505;28;20129;-85
2021/12/27 11:12:05;;;;;;;65.95;21.77;;;;;;;;;;4996699;28;20084;-84
2021/12/27 11:14:33;;;;;;;81.93;23.35;;;;;;;;;;5014333;28;20133;-84
2021/12/27 11:17:05;;;;;;;74.22;23.67;;;;;;;;;;4996676;28;20081;-83
2021/12/27 11:19:34;;;;;;;67.60;22.30;;;;;;;;;;5010925;28;20603;-83
2021/12/27 11:22:03;;;;;;;75.15;24.05;;;;;;;;;;5014280;28;20140;-85
2021/12/27 11:24:30;;;;;;;72.57;24.85;;;;;;;;;;4996346;28;20092;-83
2021/12/27 11:27:10;;;;;;;77.78;23.50;;;;;;;;;;5013913;28;20124;-83
2021/12/27 11:29:37;;;;;;;68.38;23.10;;;;;;;;;;4995530;28;20046;-87
2021/12/27 11:32:12;;;;;;;85.35;25.45;;;;;;;;;;4997898;28;20137;-83
2021/12/27 11:34:58;;;;;;;83.60;25.45;;;;;;;;;;5005831;28;20112;-85
2021/12/27 11:37:39;;;;;;;76.07;23.95;;;;;;;;;;4993355;28;20050;-84
2021/12/27 11:40:25;;;;;;;65.32;22.27;;;;;;;;;;4979782;28;20107;-85
2021/12/27 11:43:00;;;;;;;69.30;23.35;;;;;;;;;;4995466;28;20479;-84
2021/12/27 11:45:27;;;;;;;;;;;;;;;;;;5018887;28;20061;-87
2021/12/27 11:48:23;;;;;;;69.38;21.48;;;;;;;;;;4998327;28;19921;-87
2021/12/27 11:50:59;;;;;;;80.65;24.15;;;;;;;;;;5013504;28;20058;-82
2021/12/27 11:53:27;;;;;;;79.72;24.23;;;;;;;;;;4994844;28;20084;-81
2021/12/27 11:55:54;;;;;;;76.35;24.73;;;;;;;;;;5010612;28;20137;-82
2021/12/27 11:58:29;;;;;;;76.95;25.50;;;;;;;;;;4996214;28;20084;-81
2021/12/27 12:00:57;;;;;;;78.97;24.25;;;;;;;;;;4993482;28;20081;-81
2021/12/27 12:03:44;;;;;;;69.18;22.30;;;;;;;;;;4995835;28;20060;-82
2021/12/27 12:06:44;;;;;;;74.20;24.52;;;;;;;;;;5001605;28;20046;-79
2021/12/27 12:09:13;;;;;;;73.45;23.83;;;;;;;;;;4970876;28;20058;-86
2021/12/27 12:11:40;;;;;;;82.85;23.50;;;;;;;;;;5010452;28;20054;-81
2021/12/27 12:14:26;;;;;;;81.38;26.35;;;;;;;;;;5000941;28;20128;-83
2021/12/27 12:16:54;;;;;;;72.93;22.25;;;;;;;;;;5000892;28;20045;-83
2021/12/27 12:19:57;;;;;;;77.63;24.17;;;;;;;;;;4995183;28;20104;-82
2021/12/27 12:22:34;;;;;;;64.50;23.88;;;;;;;;;;4967211;28;20137;-78
2021/12/27 12:25:11;;;;;;;71.95;24.25;;;;;;;;;;5007381;28;20093;-79
2021/12/27 12:27:50;;;;;;;79.47;25.02;;;;;;;;;;4990114;28;20078;-85
2021/12/27 12:30:18;;;;;;;78.88;25.33;;;;;;;;;;5011839;28;20046;-79
2021/12/27 12:33:14;;;;;;;80.90;24.35;;;;;;;;;;4986632;28;20050;-79
2021/12/27 12:35:43;;;;;;;73.72;23.63;;;;;;;;;;4978491;28;20137;-79
2021/12/27 12:38:16;;;;;;;86.82;25.65;;;;;;;;;;5007362;28;20060;-78
2021/12/27 12:41:02;;;;;;;87.97;27.85;;;;;;;;;;4994113;28;20054;-84
2021/12/27 12:43:39;;;;;;;85.88;26.98;;;;;;;;;;4994072;28;20108;-87
2021/12/27 12:46:10;;;;;;;89.07;31.13;;;;;;;;;;5005357;28;20136;-79
2021/12/27 12:48:43;;;;;;;126.85;39.83;;;;;;;;;;5009335;28;20125;-81
2021/12/27 12:51:11;;;;;;;112.32;37.78;;;;;;;;;;4999329;28;20785;-80
2021/12/27 12:53:38;;;;;;;72.95;25.73;;;;;;;;;;4991060;28;20125;-79
2021/12/27 12:56:06;;;;;;;74.80;24.15;;;;;;;;;;4991541;28;20131;-80
2021/12/27 12:58:37;;;;;;;90.53;27.98;;;;;;;;;;5005543;28;20133;-80
2021/12/27 13:01:05;;;;;;;71.00;26.35;;;;;;;;;;4991070;28;20546;-80
2021/12/27 13:03:34;;;;;;;74.47;24.13;;;;;;;;;;5009677;28;20112;-80
2021/12/27 13:06:09;;;;;;;80.25;23.77;;;;;;;;;;4992434;28;20050;-80
2021/12/27 13:08:36;;;;;;;72.88;24.30;;;;;;;;;;4990270;28;20077;-80
2021/12/27 13:11:04;;;;;;;67.25;23.45;;;;;;;;;;5007344;28;20080;-80
2021/12/27 13:13:31;;;;;;;76.55;23.40;;;;;;;;;;5008242;28;20072;-82
2021/12/27 13:16:00;;;;;;;84.20;25.52;;;;;;;;;;4992058;28;20125;-79
2021/12/27 13:18:28;;;;;;;77.35;25.58;;;;;;;;;;4991178;28;20550;-80
2021/12/27 13:21:02;;;;;;;71.72;24.23;;;;;;;;;;4988546;28;20081;-77
2021/12/27 13:23:30;;;;;;;73.60;23.30;;;;;;;;;;4989433;28;20132;-80
2021/12/27 13:25:59;;;;;;;87.50;25.23;;;;;;;;;;5007883;28;20096;-80
2021/12/27 13:28:29;;;;;;;84.40;26.42;;;;;;;;;;5007064;28;20081;-80
2021/12/27 13:31:06;;;;;;;95.60;25.95;;;;;;;;;;5006190;28;20077;-78
2021/12/27 13:33:50;;;;;;;75.30;25.38;;;;;;;;;;4986033;28;20053;-78
2021/12/27 13:36:23;;;;;;;77.40;24.80;;;;;;;;;;5005385;28;20042;-78
2021/12/27 13:39:29;;;;;;;72.57;24.90;;;;;;;;;;4998362;28;20549;-78
2021/12/27 13:42:07;;;;;;;85.13;27.52;;;;;;;;;;4946849;29;20047;-79
2021/12/27 13:44:36;;;;;;;101.38;25.17;;;;;;;;;;4959846;28;20492;-80
2021/12/27 13:47:05;;;;;;;75.93;25.60;;;;;;;;;;4996368;28;20165;-79
2021/12/27 13:49:32;;;;;;;74.40;26.50;;;;;;;;;;4991913;28;20046;-78
2021/12/27 13:52:05;;;;;;;70.45;24.48;;;;;;;;;;4991322;28;20041;-79
2021/12/27 13:55:05;;;;;;;79.28;26.30;;;;;;;;;;5004157;28;20129;-81
2021/12/27 13:57:34;;;;;;;81.13;24.20;;;;;;;;;;4959892;28;20129;-80
2021/12/27 14:00:03;;;;;;;78.97;25.95;;;;;;;;;;5009304;28;20129;-78
2021/12/27 14:02:44;;;;;;;78.60;26.77;;;;;;;;;;5007540;28;20798;-81
2021/12/27 14:05:14;;;;;;;83.15;26.38;;;;;;;;;;5007742;28;20053;-81
2021/12/27 14:07:42;;;;;;;74.40;25.58;;;;;;;;;;4990853;28;20132;-80
2021/12/27 14:10:18;;;;;;;72.10;22.90;;;;;;;;;;4993123;28;20128;-82
2021/12/27 14:12:55;;;;;;;77.70;25.60;;;;;;;;;;5017045;28;20037;-83
2021/12/27 14:15:27;;;;;;;73.53;24.00;;;;;;;;;;5002996;28;20077;-81
2021/12/27 14:17:54;;;;;;;75.13;25.55;;;;;;;;;;5011952;28;20077;-83
2021/12/27 14:20:21;;;;;;;80.80;25.17;;;;;;;;;;5011451;28;20081;-84
2021/12/27 14:23:09;;;;;;;79.18;24.33;;;;;;;;;;4993880;28;20077;-86
2021/12/27 14:25:36;;;;;;;79.45;25.35;;;;;;;;;;5007022;28;20061;-87
2021/12/27 14:28:11;;;;;;;75.68;26.27;;;;;;;;;;5022475;28;20125;-81
2021/12/27 14:30:42;;;;;;;82.03;26.48;;;;;;;;;;5007991;28;20057;-81
2021/12/27 14:33:11;;;;;;;80.28;23.80;;;;;;;;;;5010228;28;20061;-85
2021/12/27 14:35:43;;;;;;;84.47;26.80;;;;;;;;;;5011947;28;20054;-83
2021/12/27 14:38:27;;;;;;;75.55;23.65;;;;;;;;;;5013445;28;20084;-82
2021/12/27 14:40:58;;;;;;;61.35;23.75;;;;;;;;;;5010332;28;20050;-80
2021/12/27 14:43:26;;;;;;;81.72;25.80;;;;;;;;;;5011945;28;20054;-80
2021/12/27 14:45:54;;;;;;;77.57;26.15;;;;;;;;;;4990473;28;20522;-82
2021/12/27 14:48:22;;;;;;;77.70;25.17;;;;;;;;;;4991533;28;20049;-80
2021/12/27 14:50:50;;;;;;;78.15;25.50;;;;;;;;;;4991028;28;20104;-80